Haddam Neck, Connecticut
Current Conditions -  °F | °C
As of 10:35 AM on Thursday 30 Oct 2014 (Local Time) from KSNC Reporting Station
Clear Clear  
Wind Chill: 54°   Ceiling: Unl
Heat Index: 54°   Visibility: 10mi
Dew Point: 37°   Wind: 10mph
Humidity: 54%   Direction: 320°NW
Pressure: 29.98"   Gusts: NA
Location:  41.5612°N, 72.5084°W
Report Text: KSNC 301435Z AUTO 32009KT 10SM CLR 12/03 A2998 RMK AO2
Loading
Personal Weather Stations






























Interactive Weather Map
Tropical Storm Tracking
New forecast layout! Learn more

10-Day Weather Forecast

Advertisements
Track Severe Weather on mobile